In Rescue
 
Open Full Screen Window  High Contrast Mode
Wind Gusting 00 knots
09
October 29, 2020 11:40 PM EDT
Weather Information
Wind Direction
  340 °
Wind Speed
  09 kt (10 mph)
Wind Gust
  00 kt (0 mph)
Altimeter
29.82 in
Visibility
10 SM
Temperature
07° C
45° F
Dewpoint
07° C
45° F
Humidity
100%
1hr Rain Fall
00.00 in.
24hr Rain Fall
00.92 in.
Sky Condition
Overcast @ 1,400 ft
MVFR

METAR KDLZ 300340Z AUTO 34009KT 10SM OVC014 07/07 A2982 RMK AO2

FAA Disclaimer: The data displayed is for advisory purposes only and is not to be used for flight planning or operations.